createdAt,value
2019-01-23T00:00:39.721Z,107.40
2019-01-23T00:01:39.701Z,101.10
2019-01-23T00:02:39.698Z,105.50
2019-01-23T00:03:39.669Z,103.70
2019-01-23T00:04:39.663Z,106.30
2019-01-23T00:05:39.650Z,102.80
2019-01-23T00:06:39.641Z,106.30
2019-01-23T00:07:39.641Z,101.50
2019-01-23T00:08:39.647Z,103.90
2019-01-23T00:09:39.606Z,110.10
2019-01-23T00:10:39.599Z,99.90
2019-01-23T00:11:39.591Z,105.50
2019-01-23T00:12:39.584Z,104.10
2019-01-23T00:13:39.575Z,105.40
2019-01-23T00:14:39.554Z,103.30
2019-01-23T00:15:39.549Z,103.10
2019-01-23T00:16:39.543Z,101.20
2019-01-23T00:17:39.533Z,105.90
2019-01-23T00:18:39.531Z,102.00
2019-01-23T00:19:39.509Z,105.50
2019-01-23T00:20:39.516Z,103.90
2019-01-23T00:21:39.484Z,107.60
2019-01-23T00:22:39.471Z,102.70
2019-01-23T00:23:39.479Z,102.30
2019-01-23T00:24:39.454Z,109.30
2019-01-23T00:25:39.454Z,108.50
2019-01-23T00:26:39.435Z,105.90
2019-01-23T00:27:39.425Z,99.20
2019-01-23T00:28:42.408Z,107.70
2019-01-23T00:29:39.405Z,104.40
2019-01-23T00:30:39.405Z,101.10
2019-01-23T00:31:39.392Z,103.70
2019-01-23T00:32:39.373Z,104.80
2019-01-23T00:33:39.365Z,103.70
2019-01-23T00:34:39.352Z,103.70
2019-01-23T00:35:39.342Z,104.10
2019-01-23T00:36:39.338Z,105.20
2019-01-23T00:37:39.321Z,100.70
2019-01-23T00:38:39.313Z,99.40
2019-01-23T00:39:39.298Z,104.90
2019-01-23T00:40:39.289Z,101.50
2019-01-23T00:41:39.286Z,102.00
2019-01-23T00:42:39.274Z,97.90
2019-01-23T00:43:39.260Z,104.30
2019-01-23T00:44:39.251Z,104.40
2019-01-23T00:45:39.239Z,104.80
2019-01-23T00:46:39.232Z,110.90
2019-01-23T00:47:39.220Z,105.90
2019-01-23T00:48:39.220Z,108.00
2019-01-23T00:49:39.197Z,104.60
2019-01-23T00:50:39.209Z,102.60
2019-01-23T00:51:39.181Z,105.50
2019-01-23T00:52:39.172Z,103.70
2019-01-23T00:53:39.157Z,108.30
2019-01-23T00:54:39.145Z,105.80
2019-01-23T00:55:39.137Z,93.50
2019-01-23T00:56:39.126Z,102.20
2019-01-23T00:57:39.127Z,107.50
2019-01-23T00:58:39.117Z,103.70
2019-01-23T00:59:39.094Z,107.90
2019-01-23T01:00:39.094Z,97.10
2019-01-23T01:01:39.069Z,98.70
2019-01-23T01:02:39.063Z,95.80
2019-01-23T01:03:39.055Z,102.00
2019-01-23T01:04:39.046Z,98.00
2019-01-23T01:05:39.037Z,97.60
2019-01-23T01:06:39.035Z,103.40
2019-01-23T01:07:39.015Z,91.00
2019-01-23T01:08:39.007Z,103.10
2019-01-23T01:09:38.998Z,100.70
2019-01-23T01:10:38.981Z,93.20
2019-01-23T01:11:38.973Z,99.10
2019-01-23T01:12:38.959Z,101.70
2019-01-23T01:13:38.953Z,98.80
2019-01-23T01:14:38.939Z,100.90
2019-01-23T01:15:38.933Z,96.90
2019-01-23T01:16:38.923Z,94.00
2019-01-23T01:17:38.925Z,92.60
2019-01-23T01:18:38.897Z,101.70
2019-01-23T01:19:38.893Z,95.50
2019-01-23T01:20:38.880Z,91.20
2019-01-23T01:21:38.867Z,90.90
2019-01-23T01:22:38.864Z,93.20
2019-01-23T01:23:38.853Z,94.90
2019-01-23T01:24:38.841Z,90.50
2019-01-23T01:25:38.834Z,92.80
2019-01-23T01:26:38.823Z,91.70
2019-01-23T01:27:38.809Z,94.90
2019-01-23T01:28:38.805Z,94.10
2019-01-23T01:29:38.807Z,98.70
2019-01-23T01:30:38.777Z,96.10
2019-01-23T01:31:38.775Z,96.10
2019-01-23T01:32:38.756Z,89.00
2019-01-23T01:33:38.759Z,94.90
2019-01-23T01:34:38.749Z,96.60
2019-01-23T01:35:38.727Z,97.90
2019-01-23T01:36:38.717Z,93.00
2019-01-23T01:37:38.704Z,90.10
2019-01-23T01:38:38.699Z,94.90
2019-01-23T01:39:38.697Z,92.60
2019-01-23T01:40:38.677Z,90.90
2019-01-23T01:41:38.677Z,90.90
2019-01-23T01:42:38.659Z,88.40
2019-01-23T01:43:38.643Z,91.40
2019-01-23T01:44:38.631Z,96.30
2019-01-23T01:45:38.625Z,96.90
2019-01-23T01:46:38.619Z,92.70
2019-01-23T01:47:38.613Z,92.30
2019-01-23T01:48:38.594Z,91.90
2019-01-23T01:49:38.587Z,95.30
2019-01-23T01:50:38.581Z,86.60
2019-01-23T01:51:38.559Z,87.00
2019-01-23T01:52:38.562Z,94.50
2019-01-23T01:53:38.542Z,94.70
2019-01-23T01:54:38.536Z,87.30
2019-01-23T01:55:38.525Z,81.00
2019-01-23T01:56:38.519Z,79.40
2019-01-23T01:57:38.505Z,86.80
2019-01-23T01:58:38.501Z,89.80
2019-01-23T01:59:38.487Z,94.10
2019-01-23T02:00:38.473Z,94.20
2019-01-23T02:01:38.471Z,93.80
2019-01-23T02:02:38.462Z,98.60
2019-01-23T02:03:38.445Z,94.60
2019-01-23T02:04:38.477Z,95.30
2019-01-23T02:05:38.437Z,94.80
2019-01-23T02:06:38.412Z,82.90
2019-01-23T02:07:38.406Z,97.50
2019-01-23T02:08:38.394Z,84.40
2019-01-23T02:09:38.384Z,94.30
2019-01-23T02:10:38.376Z,93.90
2019-01-23T02:11:38.361Z,84.40
2019-01-23T02:12:38.353Z,90.30
2019-01-23T02:13:38.342Z,87.50
2019-01-23T02:14:38.336Z,78.70
2019-01-23T02:15:38.323Z,88.00
2019-01-23T02:16:38.314Z,87.40
2019-01-23T02:17:38.299Z,92.20
2019-01-23T02:18:38.291Z,82.20
2019-01-23T02:19:38.281Z,85.60
2019-01-23T02:20:38.276Z,96.20
2019-01-23T02:21:38.304Z,88.00
2019-01-23T02:22:38.259Z,92.50
2019-01-23T02:23:38.239Z,87.30
2019-01-23T02:24:38.232Z,85.80
2019-01-23T02:25:38.220Z,94.40
2019-01-23T02:26:38.227Z,90.70
2019-01-23T02:27:38.209Z,93.20
2019-01-23T02:28:38.198Z,90.60
2019-01-23T02:29:38.177Z,82.00
2019-01-23T02:30:38.167Z,78.40
2019-01-23T02:31:38.163Z,86.20
2019-01-23T02:32:38.153Z,87.20
2019-01-23T02:33:38.141Z,95.80
2019-01-23T02:34:38.129Z,93.30
2019-01-23T02:35:38.121Z,87.80
2019-01-23T02:36:38.112Z,92.20
2019-01-23T02:37:38.104Z,91.90
2019-01-23T02:38:38.096Z,97.60
2019-01-23T02:39:38.087Z,93.80
2019-01-23T02:40:38.063Z,85.50
2019-01-23T02:41:38.059Z,92.90
2019-01-23T02:42:38.052Z,90.40
2019-01-23T02:43:38.045Z,94.30
2019-01-23T02:44:38.026Z,92.30
2019-01-23T02:45:38.033Z,87.50
2019-01-23T02:46:38.021Z,88.10
2019-01-23T02:47:38.000Z,88.50
2019-01-23T02:48:37.999Z,89.30
2019-01-23T02:49:37.977Z,87.30
2019-01-23T02:50:37.965Z,89.40
2019-01-23T02:51:37.961Z,89.90
2019-01-23T02:52:37.941Z,93.90
2019-01-23T02:53:37.931Z,92.60
2019-01-23T02:54:37.926Z,91.50
2019-01-23T02:55:37.920Z,91.80
2019-01-23T02:56:37.903Z,92.40
2019-01-23T02:57:37.905Z,94.80
2019-01-23T02:58:37.885Z,90.00
2019-01-23T02:59:37.880Z,88.90
2019-01-23T03:00:37.864Z,92.80
2019-01-23T03:01:37.866Z,90.50
2019-01-23T03:02:37.850Z,92.20
2019-01-23T03:03:37.852Z,91.60
2019-01-23T03:04:37.821Z,93.20
2019-01-23T03:05:37.815Z,97.20
2019-01-23T03:06:37.803Z,95.80
2019-01-23T03:07:37.801Z,89.60
2019-01-23T03:08:37.791Z,93.20
2019-01-23T03:09:37.793Z,92.90
2019-01-23T03:10:37.768Z,94.30
2019-01-23T03:11:37.765Z,90.10
2019-01-23T03:12:37.738Z,92.90
2019-01-23T03:13:37.743Z,90.90
2019-01-23T03:14:37.725Z,94.30
2019-01-23T03:15:37.723Z,98.80
2019-01-23T03:16:37.701Z,97.20
2019-01-23T03:17:37.689Z,97.00
2019-01-23T03:18:37.683Z,95.10
2019-01-23T03:19:37.675Z,95.70
2019-01-23T03:20:37.665Z,90.60
2019-01-23T03:21:37.658Z,87.00
2019-01-23T03:22:37.641Z,92.80
2019-01-23T03:23:37.631Z,96.90
2019-01-23T03:24:37.620Z,91.40
2019-01-23T03:25:37.611Z,89.60
2019-01-23T03:26:37.610Z,77.70
2019-01-23T03:27:37.597Z,98.20
2019-01-23T03:28:37.582Z,93.30
2019-01-23T03:29:37.569Z,98.10
2019-01-23T03:30:37.561Z,90.20
2019-01-23T03:31:37.569Z,90.30
2019-01-23T03:32:37.541Z,94.90
2019-01-23T03:33:37.530Z,96.80
2019-01-23T03:34:37.532Z,93.00
2019-01-23T03:35:37.508Z,93.60
2019-01-23T03:36:37.498Z,89.40
2019-01-23T03:37:37.485Z,89.50
2019-01-23T03:38:37.476Z,90.50
2019-01-23T03:39:37.469Z,95.80
2019-01-23T03:40:37.463Z,93.80
2019-01-23T03:41:37.442Z,99.20
2019-01-23T03:42:37.444Z,91.70
2019-01-23T03:43:37.428Z,94.70
2019-01-23T03:44:37.419Z,94.60
2019-01-23T03:45:37.404Z,92.70
2019-01-23T03:46:37.404Z,93.30
2019-01-23T03:47:37.380Z,89.00
2019-01-23T03:48:37.371Z,90.60
2019-01-23T03:49:37.368Z,89.50
2019-01-23T03:50:37.361Z,87.80
2019-01-23T03:51:37.341Z,88.10
2019-01-23T03:52:37.334Z,98.90
2019-01-23T03:53:37.321Z,100.80
2019-01-23T03:54:37.311Z,94.20
2019-01-23T03:55:37.301Z,88.00
2019-01-23T03:56:37.286Z,92.50
2019-01-23T03:57:37.278Z,96.60
2019-01-23T03:58:37.272Z,93.40
2019-01-23T03:59:37.256Z,98.40
2019-01-23T04:00:37.249Z,90.20
2019-01-23T04:01:37.242Z,97.90
2019-01-23T04:02:37.225Z,97.50
2019-01-23T04:03:37.217Z,97.30
2019-01-23T04:04:37.211Z,98.80
2019-01-23T04:05:37.203Z,99.30
2019-01-23T04:06:37.183Z,95.60
2019-01-23T04:07:37.184Z,98.40
2019-01-23T04:08:37.160Z,104.60
2019-01-23T04:09:37.153Z,94.60
2019-01-23T04:10:37.146Z,103.40
2019-01-23T04:11:37.141Z,98.10
2019-01-23T04:12:37.124Z,98.40
2019-01-23T04:13:37.110Z,100.20
2019-01-23T04:14:37.102Z,104.30
2019-01-23T04:15:37.092Z,96.30
2019-01-23T04:16:37.090Z,105.10
2019-01-23T04:17:37.076Z,95.50
2019-01-23T04:18:37.062Z,111.40
2019-01-23T04:19:37.057Z,104.40
2019-01-23T04:20:37.055Z,104.50
2019-01-23T04:21:37.033Z,99.80
2019-01-23T04:22:37.023Z,95.40
2019-01-23T04:23:37.012Z,99.60
2019-01-23T04:24:36.998Z,73.80
2019-01-23T04:25:36.987Z,96.40
2019-01-23T04:26:36.977Z,98.60
2019-01-23T04:27:36.964Z,95.50
2019-01-23T04:28:36.955Z,100.30
2019-01-23T04:29:39.842Z,98.40
2019-01-23T04:30:36.943Z,100.60
2019-01-23T04:31:36.925Z,98.40
2019-01-23T04:32:36.916Z,102.20
2019-01-23T04:33:36.905Z,101.30
2019-01-23T04:34:36.898Z,100.00
2019-01-23T04:35:36.894Z,98.60
2019-01-23T04:36:36.887Z,102.80
2019-01-23T04:37:36.915Z,102.40
2019-01-23T04:38:36.855Z,104.30
2019-01-23T04:39:36.851Z,96.80
2019-01-23T04:40:36.841Z,106.20
2019-01-23T04:41:36.830Z,101.20
2019-01-23T04:42:36.832Z,104.40
2019-01-23T04:43:36.813Z,97.40
2019-01-23T04:44:36.788Z,99.40
2019-01-23T04:45:36.780Z,102.10
2019-01-23T04:46:36.769Z,96.70
2019-01-23T04:47:36.756Z,98.20
2019-01-23T04:48:36.749Z,98.20
2019-01-23T04:49:36.735Z,107.00
2019-01-23T04:50:36.730Z,104.70
2019-01-23T04:51:36.712Z,105.20
2019-01-23T04:52:36.717Z,108.10
2019-01-23T04:53:36.704Z,104.20
2019-01-23T04:54:36.683Z,108.00
2019-01-23T04:55:36.677Z,104.30
2019-01-23T04:56:36.664Z,103.90
2019-01-23T04:57:36.656Z,100.70
2019-01-23T04:58:36.643Z,100.60
2019-01-23T04:59:36.641Z,110.90
2019-01-23T05:00:36.623Z,105.40
2019-01-23T05:01:36.651Z,109.90
2019-01-23T05:02:36.602Z,108.40
2019-01-23T05:03:36.600Z,111.50
2019-01-23T05:04:36.598Z,113.00
2019-01-23T05:05:36.576Z,112.70
2019-01-23T05:06:36.564Z,108.50
2019-01-23T05:07:36.558Z,108.60
2019-01-23T05:08:36.537Z,109.70
2019-01-23T05:09:36.533Z,114.40
2019-01-23T05:10:36.524Z,109.20
2019-01-23T05:11:36.516Z,112.00
2019-01-23T05:12:36.495Z,104.70
2019-01-23T05:13:36.488Z,105.90
2019-01-23T05:14:36.477Z,111.00
2019-01-23T05:15:36.467Z,112.00
2019-01-23T05:16:36.466Z,103.50
2019-01-23T05:17:36.461Z,112.70
2019-01-23T05:18:36.433Z,113.60
2019-01-23T05:19:36.425Z,106.10
2019-01-23T05:20:36.415Z,108.00
2019-01-23T05:21:36.407Z,111.00
2019-01-23T05:22:36.408Z,110.80
2019-01-23T05:23:36.386Z,112.00
2019-01-23T05:24:36.374Z,113.20
2019-01-23T05:25:36.361Z,106.70
2019-01-23T05:26:36.352Z,103.60
2019-01-23T05:27:36.344Z,111.00
2019-01-23T05:28:36.338Z,101.10
2019-01-23T05:29:36.329Z,107.40
2019-01-23T05:30:36.330Z,113.40
2019-01-23T05:31:36.296Z,104.90
2019-01-23T05:32:36.302Z,107.60
2019-01-23T05:33:36.283Z,113.60
2019-01-23T05:34:36.281Z,103.70
2019-01-23T05:35:36.263Z,108.50
2019-01-23T05:36:36.250Z,108.20
2019-01-23T05:37:36.242Z,109.50
2019-01-23T05:38:36.229Z,106.20
2019-01-23T05:39:36.234Z,105.30
2019-01-23T05:40:36.217Z,112.30
2019-01-23T05:41:36.201Z,112.80
2019-01-23T05:42:36.191Z,113.40
2019-01-23T05:43:36.196Z,111.10
2019-01-23T05:44:36.169Z,114.90
2019-01-23T05:45:36.156Z,110.10
2019-01-23T05:46:36.160Z,107.00
2019-01-23T05:47:36.144Z,100.60
2019-01-23T05:48:36.129Z,107.70
2019-01-23T05:49:36.117Z,112.60
2019-01-23T05:50:36.108Z,112.40
2019-01-23T05:51:36.147Z,105.50
2019-01-23T05:52:36.104Z,111.90
2019-01-23T05:53:36.077Z,112.70
2019-01-23T05:54:36.075Z,118.20
2019-01-23T05:55:36.059Z,111.60
2019-01-23T05:56:36.048Z,113.40
2019-01-23T05:57:36.036Z,115.30
2019-01-23T05:58:36.026Z,110.70
2019-01-23T05:59:36.018Z,104.10
2019-01-23T06:00:36.014Z,116.00
2019-01-23T06:01:36.001Z,104.60
2019-01-23T06:02:35.983Z,118.50
2019-01-23T06:03:35.992Z,113.50
2019-01-23T06:04:35.964Z,117.10
2019-01-23T06:05:35.954Z,113.80
2019-01-23T06:06:35.937Z,109.30
2019-01-23T06:07:35.942Z,116.90
2019-01-23T06:08:35.925Z,118.00
2019-01-23T06:09:35.917Z,113.00
2019-01-23T06:10:35.901Z,115.70
2019-01-23T06:11:35.893Z,111.90
2019-01-23T06:12:35.881Z,119.00
2019-01-23T06:13:35.891Z,114.60
2019-01-23T06:14:35.865Z,123.30
2019-01-23T06:15:35.868Z,119.30
2019-01-23T06:16:35.843Z,118.80
2019-01-23T06:17:35.829Z,112.80
2019-01-23T06:18:35.823Z,122.30
2019-01-23T06:19:35.817Z,121.10
2019-01-23T06:20:35.813Z,121.50
2019-01-23T06:21:35.787Z,119.40
2019-01-23T06:22:35.787Z,123.60
2019-01-23T06:23:35.770Z,118.80
2019-01-23T06:24:35.791Z,118.50
2019-01-23T06:25:35.757Z,120.50
2019-01-23T06:26:35.739Z,125.20
2019-01-23T06:27:35.730Z,112.90
2019-01-23T06:28:35.717Z,113.90
2019-01-23T06:29:35.711Z,117.30
2019-01-23T06:30:35.702Z,119.90
2019-01-23T06:31:37.301Z,117.90
2019-01-23T06:32:35.682Z,121.90
2019-01-23T06:33:35.896Z,117.20
2019-01-23T06:34:35.661Z,118.60
2019-01-23T06:35:35.651Z,117.40
2019-01-23T06:36:35.657Z,116.20
2019-01-23T06:37:35.631Z,113.60
2019-01-23T06:38:35.625Z,115.70
2019-01-23T06:39:35.646Z,115.00
2019-01-23T06:40:35.606Z,116.00
2019-01-23T06:41:35.607Z,115.30
2019-01-23T06:42:35.589Z,118.50
2019-01-23T06:43:35.566Z,115.50
2019-01-23T06:44:35.585Z,125.50
2019-01-23T06:45:35.578Z,118.00
2019-01-23T06:46:35.532Z,116.10
2019-01-23T06:47:35.532Z,114.20
2019-01-23T06:48:35.520Z,113.80
2019-01-23T06:49:35.527Z,119.60
2019-01-23T06:50:35.530Z,110.20
2019-01-23T06:51:35.492Z,120.50
2019-01-23T06:52:35.482Z,113.30
2019-01-23T06:53:35.471Z,116.30
2019-01-23T06:54:35.457Z,117.50
2019-01-23T06:55:35.490Z,114.40
2019-01-23T06:56:35.470Z,120.70
2019-01-23T06:57:35.422Z,115.30
2019-01-23T06:58:35.419Z,120.70
2019-01-23T06:59:35.418Z,119.10
2019-01-23T07:00:35.412Z,122.50
2019-01-23T07:01:35.409Z,120.50
2019-01-23T07:02:35.401Z,123.30
2019-01-23T07:03:35.367Z,120.70
2019-01-23T07:04:35.417Z,118.90
2019-01-23T07:05:35.396Z,119.30
2019-01-23T07:06:35.336Z,126.20
2019-01-23T07:07:35.344Z,117.20
2019-01-23T07:08:35.312Z,124.40
2019-01-23T07:09:35.303Z,124.50
2019-01-23T07:10:35.303Z,117.30
2019-01-23T07:11:35.293Z,121.80
2019-01-23T07:12:35.275Z,125.20
2019-01-23T07:13:35.270Z,126.90
2019-01-23T07:14:35.275Z,124.10
2019-01-23T07:15:35.251Z,123.90
2019-01-23T07:16:35.231Z,118.90
2019-01-23T07:17:35.219Z,121.20
2019-01-23T07:18:35.212Z,119.70
2019-01-23T07:19:35.207Z,132.50
2019-01-23T07:20:35.195Z,117.40
2019-01-23T07:21:35.194Z,130.10
2019-01-23T07:22:35.173Z,128.90
2019-01-23T07:23:35.205Z,127.60
2019-01-23T07:24:35.164Z,127.70
2019-01-23T07:25:35.153Z,127.50
2019-01-23T07:26:35.154Z,117.90
2019-01-23T07:27:35.127Z,124.40
2019-01-23T07:28:35.124Z,118.00
2019-01-23T07:29:35.115Z,132.70
2019-01-23T07:30:35.088Z,130.60
2019-01-23T07:31:35.093Z,122.80
2019-01-23T07:32:35.073Z,120.60
2019-01-23T07:33:35.060Z,128.40
2019-01-23T07:34:35.054Z,127.20
2019-01-23T07:35:35.058Z,131.50
2019-01-23T07:36:35.032Z,134.00
2019-01-23T07:37:35.027Z,124.00
2019-01-23T07:38:35.051Z,132.60
2019-01-23T07:39:35.015Z,130.20
2019-01-23T07:40:34.983Z,131.70
2019-01-23T07:41:34.978Z,132.60
2019-01-23T07:42:34.973Z,137.80
2019-01-23T07:43:34.955Z,137.90
2019-01-23T07:44:34.943Z,134.30
2019-01-23T07:45:34.940Z,136.40
2019-01-23T07:46:34.936Z,130.10
2019-01-23T07:47:34.915Z,129.00
2019-01-23T07:48:34.903Z,140.20
2019-01-23T07:49:34.890Z,129.20
2019-01-23T07:50:34.879Z,135.20
2019-01-23T07:51:34.875Z,130.90
2019-01-23T07:52:34.875Z,133.10
2019-01-23T07:53:34.857Z,130.00
2019-01-23T07:54:34.851Z,134.10
2019-01-23T07:55:34.831Z,140.20
2019-01-23T07:56:34.815Z,146.80
2019-01-23T07:57:34.825Z,137.90
2019-01-23T07:58:34.823Z,143.10
2019-01-23T07:59:34.789Z,145.40
2019-01-23T08:00:34.803Z,141.20
2019-01-23T08:01:34.776Z,144.10
2019-01-23T08:02:34.755Z,139.60
2019-01-23T08:03:34.753Z,143.30
2019-01-23T08:04:34.735Z,146.70
2019-01-23T08:05:34.736Z,145.60
2019-01-23T08:06:34.731Z,145.30
2019-01-23T08:07:34.710Z,149.80
2019-01-23T08:08:34.707Z,141.20
2019-01-23T08:09:34.686Z,151.60
2019-01-23T08:10:34.674Z,152.60
2019-01-23T08:11:34.665Z,144.90
2019-01-23T08:12:34.657Z,150.50
2019-01-23T08:13:34.645Z,157.80
2019-01-23T08:14:34.633Z,146.90
2019-01-23T08:15:34.635Z,154.00
2019-01-23T08:16:34.617Z,165.20
2019-01-23T08:17:34.610Z,161.50
2019-01-23T08:18:34.598Z,156.30
2019-01-23T08:19:34.583Z,157.70
2019-01-23T08:20:34.573Z,163.30
2019-01-23T08:21:34.619Z,158.80
2019-01-23T08:22:34.561Z,164.90
2019-01-23T08:23:34.547Z,161.70
2019-01-23T08:24:34.550Z,162.70
2019-01-23T08:25:34.523Z,160.70
2019-01-23T08:26:34.515Z,158.60
2019-01-23T08:27:34.505Z,161.70
2019-01-23T08:28:34.494Z,170.10
2019-01-23T08:29:34.511Z,164.60
2019-01-23T08:30:38.635Z,166.90
2019-01-23T08:31:35.509Z,167.60
2019-01-23T08:32:34.455Z,167.70
2019-01-23T08:33:34.455Z,169.10
2019-01-23T08:34:34.433Z,170.00
2019-01-23T08:35:34.433Z,168.70
2019-01-23T08:36:34.427Z,161.40
2019-01-23T08:37:34.399Z,168.80
2019-01-23T08:38:34.394Z,172.40
2019-01-23T08:39:34.417Z,161.50
2019-01-23T08:40:34.378Z,172.80
2019-01-23T08:41:34.373Z,170.70
2019-01-23T08:42:34.347Z,172.20
2019-01-23T08:43:34.338Z,170.20
2019-01-23T08:44:34.331Z,178.50
2019-01-23T08:45:34.318Z,175.80
2019-01-23T08:46:34.314Z,175.10
2019-01-23T08:47:34.296Z,170.80
2019-01-23T08:48:34.301Z,181.60
2019-01-23T08:49:34.270Z,175.90
2019-01-23T08:50:34.270Z,173.00
2019-01-23T08:51:34.252Z,190.20
2019-01-23T08:52:34.258Z,180.20
2019-01-23T08:53:34.235Z,171.60
2019-01-23T08:54:34.227Z,175.80
2019-01-23T08:55:34.211Z,174.60
2019-01-23T08:56:34.222Z,181.30
2019-01-23T08:57:34.192Z,187.50
2019-01-23T08:58:34.203Z,173.60
2019-01-23T08:59:34.207Z,179.70
2019-01-23T09:00:34.283Z,176.50
2019-01-23T09:01:34.145Z,182.00
2019-01-23T09:02:34.137Z,182.30
2019-01-23T09:03:34.147Z,188.20
2019-01-23T09:04:34.127Z,185.40
2019-01-23T09:05:34.109Z,187.80
2019-01-23T09:06:34.118Z,184.50
2019-01-23T09:07:34.093Z,189.10
2019-01-23T09:08:37.761Z,192.40
2019-01-23T09:09:34.076Z,198.60
2019-01-23T09:10:34.066Z,196.40
2019-01-23T09:11:34.055Z,202.30
2019-01-23T09:12:34.037Z,197.80
2019-01-23T09:13:34.026Z,202.60
2019-01-23T09:14:34.011Z,202.90
2019-01-23T09:15:34.019Z,201.10
2019-01-23T09:16:33.992Z,201.20
2019-01-23T09:17:33.983Z,190.60
2019-01-23T09:18:33.974Z,203.00
2019-01-23T09:19:33.962Z,195.50
2019-01-23T09:20:33.963Z,190.30
2019-01-23T09:21:33.943Z,204.30
2019-01-23T09:22:33.931Z,203.30
2019-01-23T09:23:33.948Z,206.70
2019-01-23T09:24:33.911Z,190.30
2019-01-23T09:25:33.907Z,204.80
2019-01-23T09:26:33.895Z,196.70
2019-01-23T09:27:33.915Z,203.30
2019-01-23T09:28:33.883Z,197.70
2019-01-23T09:29:33.865Z,199.40
2019-01-23T09:30:33.859Z,200.00
2019-01-23T09:31:33.845Z,203.10
2019-01-23T09:32:33.831Z,195.50
2019-01-23T09:33:33.836Z,204.30
2019-01-23T09:34:33.810Z,203.60
2019-01-23T09:35:33.795Z,200.20
2019-01-23T09:36:33.807Z,206.30
2019-01-23T09:37:33.775Z,200.90
2019-01-23T09:38:33.802Z,205.30
2019-01-23T09:39:33.763Z,198.10
2019-01-23T09:40:33.770Z,197.90
2019-01-23T09:41:33.737Z,203.80
2019-01-23T09:42:33.725Z,200.20
2019-01-23T09:43:33.715Z,198.50
2019-01-23T09:44:33.717Z,210.30
2019-01-23T09:45:33.697Z,202.80
2019-01-23T09:46:33.681Z,215.00
2019-01-23T09:47:33.675Z,200.80
2019-01-23T09:48:33.677Z,199.90
2019-01-23T09:49:33.653Z,205.10
2019-01-23T09:50:33.647Z,206.00
2019-01-23T09:51:33.632Z,208.80
2019-01-23T09:52:33.614Z,203.90
2019-01-23T09:53:33.613Z,195.00
2019-01-23T09:54:33.622Z,195.70
2019-01-23T09:55:33.599Z,203.80
2019-01-23T09:56:33.592Z,204.60
2019-01-23T09:57:33.576Z,205.70
2019-01-23T09:58:33.560Z,202.80
2019-01-23T09:59:33.553Z,200.80
2019-01-23T10:00:33.607Z,201.00
2019-01-23T10:01:33.538Z,197.30
2019-01-23T10:02:33.530Z,205.90
2019-01-23T10:03:33.504Z,197.60
2019-01-23T10:04:33.511Z,204.10
2019-01-23T10:05:33.484Z,202.80
2019-01-23T10:06:33.479Z,191.90
2019-01-23T10:07:33.511Z,214.30
2019-01-23T10:08:33.456Z,205.30
2019-01-23T10:09:33.982Z,201.70
2019-01-23T10:10:33.433Z,205.00
2019-01-23T10:11:33.441Z,208.80
2019-01-23T10:12:33.417Z,199.60
2019-01-23T10:13:33.428Z,203.90
2019-01-23T10:14:33.392Z,218.60
2019-01-23T10:15:33.386Z,204.40
2019-01-23T10:16:33.436Z,212.30
2019-01-23T10:17:33.370Z,211.00
2019-01-23T10:18:33.374Z,211.70
2019-01-23T10:19:33.355Z,214.50
2019-01-23T10:20:33.340Z,208.40
2019-01-23T10:21:33.315Z,208.00
2019-01-23T10:22:33.308Z,206.10
2019-01-23T10:23:33.311Z,216.50
2019-01-23T10:24:36.080Z,220.00
2019-01-23T10:25:33.293Z,209.80
2019-01-23T10:26:33.266Z,213.20
2019-01-23T10:27:33.255Z,209.90
2019-01-23T10:28:33.281Z,208.20
2019-01-23T10:29:33.234Z,218.40
2019-01-23T10:30:33.234Z,229.40
2019-01-23T10:31:33.238Z,219.50
2019-01-23T10:32:33.205Z,215.40
2019-01-23T10:33:33.197Z,215.30
2019-01-23T10:34:33.183Z,218.40
2019-01-23T10:35:33.171Z,215.70
2019-01-23T10:36:33.167Z,214.70
2019-01-23T10:37:33.196Z,220.10
2019-01-23T10:38:33.179Z,225.30
2019-01-23T10:39:33.130Z,215.70
2019-01-23T10:40:33.152Z,208.10
2019-01-23T10:41:33.107Z,213.50
2019-01-23T10:42:33.105Z,215.10
2019-01-23T10:43:33.087Z,206.20
2019-01-23T10:44:33.074Z,213.50
2019-01-23T10:45:33.068Z,209.10
2019-01-23T10:46:33.068Z,213.40
2019-01-23T10:47:33.047Z,205.60
2019-01-23T10:48:37.984Z,209.20
2019-01-23T10:49:34.027Z,213.80
2019-01-23T10:50:33.015Z,207.70
2019-01-23T10:51:33.014Z,210.50
2019-01-23T10:52:32.996Z,209.50
2019-01-23T10:53:32.987Z,210.70
2019-01-23T10:54:32.971Z,205.50
2019-01-23T10:55:32.965Z,199.50
2019-01-23T10:56:32.953Z,204.20
2019-01-23T10:57:32.938Z,202.70
2019-01-23T10:58:32.931Z,217.00
2019-01-23T10:59:32.940Z,217.20
2019-01-23T11:00:32.911Z,198.80
2019-01-23T11:01:32.899Z,202.40
2019-01-23T11:02:32.901Z,206.20
2019-01-23T11:03:32.881Z,212.70
2019-01-23T11:04:32.885Z,195.70
2019-01-23T11:05:32.862Z,207.10
2019-01-23T11:06:32.847Z,206.00
2019-01-23T11:07:32.837Z,212.60
2019-01-23T11:08:32.832Z,201.00
2019-01-23T11:09:32.838Z,197.60
2019-01-23T11:10:32.813Z,212.20
2019-01-23T11:11:32.823Z,206.60
2019-01-23T11:12:32.779Z,206.80
2019-01-23T11:13:32.789Z,206.00
2019-01-23T11:14:32.764Z,206.40
2019-01-23T11:15:32.755Z,205.70
2019-01-23T11:16:32.749Z,195.10
2019-01-23T11:17:32.730Z,206.10
2019-01-23T11:18:32.719Z,203.70
2019-01-23T11:19:32.710Z,205.20
2019-01-23T11:20:32.697Z,201.20
2019-01-23T11:21:32.703Z,209.80
2019-01-23T11:22:32.677Z,197.00
2019-01-23T11:23:32.661Z,202.80
2019-01-23T11:24:32.656Z,203.70
2019-01-23T11:25:32.917Z,212.30
2019-01-23T11:26:32.637Z,200.40
2019-01-23T11:27:32.630Z,215.60
2019-01-23T11:28:32.619Z,210.20
2019-01-23T11:29:32.605Z,209.50
2019-01-23T11:30:32.598Z,201.70
2019-01-23T11:31:32.585Z,210.30
2019-01-23T11:32:32.585Z,211.10
2019-01-23T11:33:32.567Z,214.30
2019-01-23T11:34:32.582Z,215.20
2019-01-23T11:35:32.535Z,215.20
2019-01-23T11:36:32.537Z,203.90
2019-01-23T11:37:32.523Z,205.80
2019-01-23T11:38:32.531Z,213.00
2019-01-23T11:39:32.507Z,214.40
2019-01-23T11:40:32.507Z,216.20
2019-01-23T11:41:32.477Z,216.80
2019-01-23T11:42:32.467Z,218.70
2019-01-23T11:43:32.457Z,212.40
2019-01-23T11:44:32.454Z,211.50
2019-01-23T11:45:32.453Z,213.40
2019-01-23T11:46:32.427Z,213.90
2019-01-23T11:47:32.420Z,210.70
2019-01-23T11:48:32.418Z,207.30
2019-01-23T11:49:32.396Z,212.00
2019-01-23T11:50:32.390Z,208.90
2019-01-23T11:51:32.379Z,208.40
2019-01-23T11:52:32.373Z,214.60
2019-01-23T11:53:32.350Z,201.00
2019-01-23T11:54:32.363Z,210.00
2019-01-23T11:55:32.338Z,210.80
2019-01-23T11:56:32.326Z,209.90
2019-01-23T11:57:32.314Z,208.50
2019-01-23T11:58:32.302Z,212.90
2019-01-23T11:59:32.361Z,200.20
2019-01-23T12:00:32.472Z,206.00
2019-01-23T12:01:32.289Z,215.20
2019-01-23T12:02:32.261Z,202.40
2019-01-23T12:03:32.267Z,206.30
2019-01-23T12:04:32.243Z,201.50
2019-01-23T12:05:32.229Z,206.70
2019-01-23T12:06:32.217Z,204.60
2019-01-23T12:07:32.202Z,200.90
2019-01-23T12:08:32.207Z,208.70
2019-01-23T12:09:32.184Z,208.90
2019-01-23T12:10:32.178Z,217.80
2019-01-23T12:11:32.173Z,206.60
2019-01-23T12:12:32.156Z,214.50
2019-01-23T12:13:32.149Z,220.00
2019-01-23T12:14:32.161Z,222.00
2019-01-23T12:15:32.127Z,216.10
2019-01-23T12:16:32.116Z,214.20
2019-01-23T12:17:32.122Z,228.30
2019-01-23T12:18:32.091Z,213.60
2019-01-23T12:19:32.115Z,208.50
2019-01-23T12:20:32.097Z,218.90
2019-01-23T12:21:32.071Z,209.50
2019-01-23T12:22:32.061Z,200.60
2019-01-23T12:23:32.044Z,189.20
2019-01-23T12:24:32.037Z,193.70
2019-01-23T12:25:32.029Z,197.80
2019-01-23T12:26:32.027Z,190.10
2019-01-23T12:27:31.999Z,198.80
2019-01-23T12:28:31.985Z,207.10
2019-01-23T12:29:31.977Z,208.00
2019-01-23T12:30:31.965Z,199.50
2019-01-23T12:31:35.164Z,202.70
2019-01-23T12:32:31.959Z,209.40
2019-01-23T12:33:31.943Z,198.10
2019-01-23T12:34:31.925Z,208.00